sensor_id;sensor_type;location;lat;lon;timestamp;P1;durP1;ratioP1;P2;durP2;ratioP2
34212;SDS011;20477;51.390;8.102;2022-10-16T00:01:53;6.30;;;2.25;;
34212;SDS011;20477;51.390;8.102;2022-10-16T00:04:20;4.38;;;2.25;;
34212;SDS011;20477;51.390;8.102;2022-10-16T00:06:49;5.03;;;2.20;;
34212;SDS011;20477;51.390;8.102;2022-10-16T00:09:16;7.25;;;2.72;;
34212;SDS011;20477;51.390;8.102;2022-10-16T00:11:43;8.32;;;3.38;;
34212;SDS011;20477;51.390;8.102;2022-10-16T00:14:12;6.70;;;2.63;;
34212;SDS011;20477;51.390;8.102;2022-10-16T00:16:41;4.18;;;2.20;;
34212;SDS011;20477;51.390;8.102;2022-10-16T00:19:08;6.07;;;2.38;;
34212;SDS011;20477;51.390;8.102;2022-10-16T00:21:37;4.40;;;2.35;;
34212;SDS011;20477;51.390;8.102;2022-10-16T00:24:06;5.28;;;1.98;;
34212;SDS011;20477;51.390;8.102;2022-10-16T00:26:35;8.05;;;3.67;;
34212;SDS011;20477;51.390;8.102;2022-10-16T00:29:03;9.95;;;3.08;;
34212;SDS011;20477;51.390;8.102;2022-10-16T00:31:31;12.70;;;3.38;;
34212;SDS011;20477;51.390;8.102;2022-10-16T00:33:58;10.40;;;3.97;;
34212;SDS011;20477;51.390;8.102;2022-10-16T00:36:26;6.68;;;3.05;;
34212;SDS011;20477;51.390;8.102;2022-10-16T00:38:54;11.18;;;3.65;;
34212;SDS011;20477;51.390;8.102;2022-10-16T00:41:24;5.32;;;3.50;;
34212;SDS011;20477;51.390;8.102;2022-10-16T00:43:57;6.07;;;2.97;;
34212;SDS011;20477;51.390;8.102;2022-10-16T00:48:59;16.77;;;2.95;;
34212;SDS011;20477;51.390;8.102;2022-10-16T00:53:59;7.55;;;2.85;;
34212;SDS011;20477;51.390;8.102;2022-10-16T00:56:26;12.88;;;3.05;;
34212;SDS011;20477;51.390;8.102;2022-10-16T00:58:53;7.55;;;2.47;;
34212;SDS011;20477;51.390;8.102;2022-10-16T01:01:20;9.65;;;3.00;;
34212;SDS011;20477;51.390;8.102;2022-10-16T01:03:47;5.25;;;2.63;;
34212;SDS011;20477;51.390;8.102;2022-10-16T01:11:56;3.97;;;1.73;;
34212;SDS011;20477;51.390;8.102;2022-10-16T01:14:53;10.02;;;1.65;;
34212;SDS011;20477;51.390;8.102;2022-10-16T01:28:51;8.52;;;1.50;;
34212;SDS011;20477;51.390;8.102;2022-10-16T01:31:34;4.47;;;1.42;;
34212;SDS011;20477;51.390;8.102;2022-10-16T01:34:05;4.88;;;1.50;;
34212;SDS011;20477;51.390;8.102;2022-10-16T01:36:37;7.10;;;2.30;;
34212;SDS011;20477;51.390;8.102;2022-10-16T01:39:06;7.57;;;1.75;;
34212;SDS011;20477;51.390;8.102;2022-10-16T01:41:37;5.93;;;1.67;;
34212;SDS011;20477;51.390;8.102;2022-10-16T01:44:10;5.00;;;1.83;;
34212;SDS011;20477;51.390;8.102;2022-10-16T01:46:52;8.60;;;1.83;;
34212;SDS011;20477;51.390;8.102;2022-10-16T01:49:20;2.85;;;1.58;;
34212;SDS011;20477;51.390;8.102;2022-10-16T01:51:49;4.18;;;1.67;;
34212;SDS011;20477;51.390;8.102;2022-10-16T01:54:19;7.03;;;1.60;;
34212;SDS011;20477;51.390;8.102;2022-10-16T01:56:47;7.55;;;2.00;;
34212;SDS011;20477;51.390;8.102;2022-10-16T01:59:16;9.40;;;2.90;;
34212;SDS011;20477;51.390;8.102;2022-10-16T02:01:46;7.25;;;3.15;;
34212;SDS011;20477;51.390;8.102;2022-10-16T02:04:17;9.55;;;3.00;;
34212;SDS011;20477;51.390;8.102;2022-10-16T02:06:47;9.85;;;2.78;;
34212;SDS011;20477;51.390;8.102;2022-10-16T02:09:14;14.05;;;2.58;;
34212;SDS011;20477;51.390;8.102;2022-10-16T02:11:43;5.25;;;2.70;;
34212;SDS011;20477;51.390;8.102;2022-10-16T02:14:10;7.57;;;2.38;;
34212;SDS011;20477;51.390;8.102;2022-10-16T02:16:38;1.95;;;1.67;;
34212;SDS011;20477;51.390;8.102;2022-10-16T02:19:07;8.60;;;2.45;;
34212;SDS011;20477;51.390;8.102;2022-10-16T02:24:08;5.15;;;1.65;;
34212;SDS011;20477;51.390;8.102;2022-10-16T02:27:28;8.55;;;2.00;;
34212;SDS011;20477;51.390;8.102;2022-10-16T02:29:46;11.38;;;2.17;;
34212;SDS011;20477;51.390;8.102;2022-10-16T02:32:17;6.30;;;2.78;;
34212;SDS011;20477;51.390;8.102;2022-10-16T02:34:48;8.15;;;2.88;;
34212;SDS011;20477;51.390;8.102;2022-10-16T02:37:16;8.98;;;2.50;;
34212;SDS011;20477;51.390;8.102;2022-10-16T02:39:43;11.57;;;2.28;;
34212;SDS011;20477;51.390;8.102;2022-10-16T02:42:11;10.40;;;2.83;;
34212;SDS011;20477;51.390;8.102;2022-10-16T02:44:39;8.75;;;2.45;;
34212;SDS011;20477;51.390;8.102;2022-10-16T02:47:06;9.68;;;2.35;;
34212;SDS011;20477;51.390;8.102;2022-10-16T02:49:33;6.18;;;2.13;;
34212;SDS011;20477;51.390;8.102;2022-10-16T02:52:00;5.20;;;2.05;;
34212;SDS011;20477;51.390;8.102;2022-10-16T02:54:27;6.13;;;2.47;;
34212;SDS011;20477;51.390;8.102;2022-10-16T02:56:54;5.15;;;1.60;;
34212;SDS011;20477;51.390;8.102;2022-10-16T02:59:20;4.00;;;1.42;;
34212;SDS011;20477;51.390;8.102;2022-10-16T03:01:47;7.85;;;2.10;;
34212;SDS011;20477;51.390;8.102;2022-10-16T03:04:14;6.93;;;2.22;;
34212;SDS011;20477;51.390;8.102;2022-10-16T03:06:41;2.83;;;1.75;;
34212;SDS011;20477;51.390;8.102;2022-10-16T03:09:08;2.95;;;1.80;;
34212;SDS011;20477;51.390;8.102;2022-10-16T03:11:35;6.07;;;1.60;;
34212;SDS011;20477;51.390;8.102;2022-10-16T03:14:02;2.60;;;1.58;;
34212;SDS011;20477;51.390;8.102;2022-10-16T03:16:29;4.35;;;1.73;;
34212;SDS011;20477;51.390;8.102;2022-10-16T03:18:56;5.95;;;1.90;;
34212;SDS011;20477;51.390;8.102;2022-10-16T03:21:22;10.20;;;1.95;;
34212;SDS011;20477;51.390;8.102;2022-10-16T03:23:49;1.58;;;1.40;;
34212;SDS011;20477;51.390;8.102;2022-10-16T03:26:16;2.20;;;1.30;;
34212;SDS011;20477;51.390;8.102;2022-10-16T03:28:43;1.90;;;1.25;;
34212;SDS011;20477;51.390;8.102;2022-10-16T03:31:10;8.55;;;1.30;;
34212;SDS011;20477;51.390;8.102;2022-10-16T03:33:37;2.20;;;1.20;;
34212;SDS011;20477;51.390;8.102;2022-10-16T03:36:04;7.90;;;2.58;;
34212;SDS011;20477;51.390;8.102;2022-10-16T03:38:31;1.67;;;1.45;;
34212;SDS011;20477;51.390;8.102;2022-10-16T03:40:58;4.20;;;1.50;;
34212;SDS011;20477;51.390;8.102;2022-10-16T03:43:25;4.88;;;1.52;;
34212;SDS011;20477;51.390;8.102;2022-10-16T03:45:51;3.33;;;1.50;;
34212;SDS011;20477;51.390;8.102;2022-10-16T03:48:18;5.47;;;1.65;;
34212;SDS011;20477;51.390;8.102;2022-10-16T03:50:45;5.22;;;1.88;;
34212;SDS011;20477;51.390;8.102;2022-10-16T03:53:15;1.42;;;1.10;;
34212;SDS011;20477;51.390;8.102;2022-10-16T03:55:42;2.17;;;1.40;;
34212;SDS011;20477;51.390;8.102;2022-10-16T03:58:09;1.20;;;1.10;;
34212;SDS011;20477;51.390;8.102;2022-10-16T04:00:40;3.70;;;1.40;;
34212;SDS011;20477;51.390;8.102;2022-10-16T04:03:07;4.53;;;1.05;;
34212;SDS011;20477;51.390;8.102;2022-10-16T04:05:34;6.22;;;1.30;;
34212;SDS011;20477;51.390;8.102;2022-10-16T04:08:01;7.68;;;1.48;;
34212;SDS011;20477;51.390;8.102;2022-10-16T04:10:28;1.83;;;1.13;;
34212;SDS011;20477;51.390;8.102;2022-10-16T04:12:55;4.82;;;1.00;;
34212;SDS011;20477;51.390;8.102;2022-10-16T04:15:22;2.40;;;1.23;;
34212;SDS011;20477;51.390;8.102;2022-10-16T04:17:49;4.13;;;1.83;;
34212;SDS011;20477;51.390;8.102;2022-10-16T04:20:17;4.82;;;1.30;;
34212;SDS011;20477;51.390;8.102;2022-10-16T04:22:44;6.85;;;1.23;;
34212;SDS011;20477;51.390;8.102;2022-10-16T04:25:11;4.22;;;1.85;;
34212;SDS011;20477;51.390;8.102;2022-10-16T04:27:38;7.57;;;1.60;;
34212;SDS011;20477;51.390;8.102;2022-10-16T04:30:10;7.07;;;1.38;;
34212;SDS011;20477;51.390;8.102;2022-10-16T04:32:37;3.60;;;1.13;;
34212;SDS011;20477;51.390;8.102;2022-10-16T04:35:04;9.00;;;1.75;;
34212;SDS011;20477;51.390;8.102;2022-10-16T04:37:31;5.45;;;1.25;;
34212;SDS011;20477;51.390;8.102;2022-10-16T04:39:58;4.88;;;1.55;;
34212;SDS011;20477;51.390;8.102;2022-10-16T04:42:25;5.00;;;1.35;;
34212;SDS011;20477;51.390;8.102;2022-10-16T04:44:52;5.47;;;1.60;;
34212;SDS011;20477;51.390;8.102;2022-10-16T04:47:19;4.63;;;1.40;;
34212;SDS011;20477;51.390;8.102;2022-10-16T04:49:46;4.22;;;1.70;;
34212;SDS011;20477;51.390;8.102;2022-10-16T04:52:12;2.58;;;1.85;;
34212;SDS011;20477;51.390;8.102;2022-10-16T04:54:39;3.70;;;1.63;;
34212;SDS011;20477;51.390;8.102;2022-10-16T04:57:06;5.60;;;1.67;;
34212;SDS011;20477;51.390;8.102;2022-10-16T04:59:33;3.97;;;1.77;;
34212;SDS011;20477;51.390;8.102;2022-10-16T05:02:00;3.85;;;1.40;;
34212;SDS011;20477;51.390;8.102;2022-10-16T05:04:27;4.25;;;1.70;;
34212;SDS011;20477;51.390;8.102;2022-10-16T05:06:54;4.30;;;1.75;;
34212;SDS011;20477;51.390;8.102;2022-10-16T05:09:20;2.33;;;1.42;;
34212;SDS011;20477;51.390;8.102;2022-10-16T05:11:47;7.97;;;2.00;;
34212;SDS011;20477;51.390;8.102;2022-10-16T05:14:14;3.75;;;1.55;;
34212;SDS011;20477;51.390;8.102;2022-10-16T05:16:41;3.53;;;1.38;;
34212;SDS011;20477;51.390;8.102;2022-10-16T05:19:08;3.40;;;1.60;;
34212;SDS011;20477;51.390;8.102;2022-10-16T05:21:55;2.70;;;1.90;;
34212;SDS011;20477;51.390;8.102;2022-10-16T05:24:22;4.28;;;1.80;;
34212;SDS011;20477;51.390;8.102;2022-10-16T05:26:49;2.97;;;1.58;;
34212;SDS011;20477;51.390;8.102;2022-10-16T05:29:16;4.00;;;1.42;;
34212;SDS011;20477;51.390;8.102;2022-10-16T05:31:43;2.95;;;1.58;;
34212;SDS011;20477;51.390;8.102;2022-10-16T05:34:10;2.45;;;1.20;;
34212;SDS011;20477;51.390;8.102;2022-10-16T05:36:37;1.60;;;1.17;;
34212;SDS011;20477;51.390;8.102;2022-10-16T05:39:04;1.48;;;1.27;;
34212;SDS011;20477;51.390;8.102;2022-10-16T05:41:31;2.88;;;1.40;;
34212;SDS011;20477;51.390;8.102;2022-10-16T05:43:58;4.63;;;1.80;;
34212;SDS011;20477;51.390;8.102;2022-10-16T05:46:25;5.68;;;1.38;;
34212;SDS011;20477;51.390;8.102;2022-10-16T05:48:52;1.60;;;1.50;;
34212;SDS011;20477;51.390;8.102;2022-10-16T05:51:19;3.33;;;1.50;;
34212;SDS011;20477;51.390;8.102;2022-10-16T05:53:46;5.07;;;1.48;;
34212;SDS011;20477;51.390;8.102;2022-10-16T05:56:13;2.47;;;1.13;;
34212;SDS011;20477;51.390;8.102;2022-10-16T05:58:40;3.25;;;1.48;;
34212;SDS011;20477;51.390;8.102;2022-10-16T06:01:17;4.55;;;1.45;;
34212;SDS011;20477;51.390;8.102;2022-10-16T06:03:45;5.57;;;1.63;;
34212;SDS011;20477;51.390;8.102;2022-10-16T06:06:13;5.85;;;1.40;;
34212;SDS011;20477;51.390;8.102;2022-10-16T06:08:42;4.60;;;1.58;;
34212;SDS011;20477;51.390;8.102;2022-10-16T06:11:10;3.28;;;1.50;;
34212;SDS011;20477;51.390;8.102;2022-10-16T06:13:38;4.82;;;2.03;;
34212;SDS011;20477;51.390;8.102;2022-10-16T06:16:08;1.63;;;1.50;;
34212;SDS011;20477;51.390;8.102;2022-10-16T06:18:36;6.93;;;1.50;;
34212;SDS011;20477;51.390;8.102;2022-10-16T06:21:09;3.08;;;1.35;;
34212;SDS011;20477;51.390;8.102;2022-10-16T06:23:37;3.70;;;1.55;;
34212;SDS011;20477;51.390;8.102;2022-10-16T06:26:08;3.30;;;1.50;;
34212;SDS011;20477;51.390;8.102;2022-10-16T06:28:36;3.63;;;1.50;;
34212;SDS011;20477;51.390;8.102;2022-10-16T06:31:04;4.88;;;1.63;;
34212;SDS011;20477;51.390;8.102;2022-10-16T06:33:34;3.85;;;1.83;;
34212;SDS011;20477;51.390;8.102;2022-10-16T06:38:29;4.43;;;1.40;;
34212;SDS011;20477;51.390;8.102;2022-10-16T06:40:56;1.38;;;1.13;;
34212;SDS011;20477;51.390;8.102;2022-10-16T06:43:23;2.05;;;1.40;;
34212;SDS011;20477;51.390;8.102;2022-10-16T06:45:53;3.08;;;2.30;;
34212;SDS011;20477;51.390;8.102;2022-10-16T06:48:21;6.43;;;1.63;;
34212;SDS011;20477;51.390;8.102;2022-10-16T06:50:55;3.83;;;1.70;;
34212;SDS011;20477;51.390;8.102;2022-10-16T06:53:21;2.38;;;1.20;;
34212;SDS011;20477;51.390;8.102;2022-10-16T06:55:48;3.33;;;1.00;;
34212;SDS011;20477;51.390;8.102;2022-10-16T06:58:15;5.57;;;1.38;;
34212;SDS011;20477;51.390;8.102;2022-10-16T07:00:42;4.95;;;1.65;;
34212;SDS011;20477;51.390;8.102;2022-10-16T07:03:09;5.75;;;2.10;;
34212;SDS011;20477;51.390;8.102;2022-10-16T07:05:39;2.50;;;1.90;;
34212;SDS011;20477;51.390;8.102;2022-10-16T07:08:09;2.30;;;1.63;;
34212;SDS011;20477;51.390;8.102;2022-10-16T07:10:36;2.22;;;1.20;;
34212;SDS011;20477;51.390;8.102;2022-10-16T07:13:03;8.75;;;1.92;;
34212;SDS011;20477;51.390;8.102;2022-10-16T07:15:30;4.07;;;1.38;;
34212;SDS011;20477;51.390;8.102;2022-10-16T07:17:56;3.60;;;1.40;;
34212;SDS011;20477;51.390;8.102;2022-10-16T07:20:23;7.72;;;1.60;;
34212;SDS011;20477;51.390;8.102;2022-10-16T07:22:50;4.00;;;1.30;;
34212;SDS011;20477;51.390;8.102;2022-10-16T07:25:17;1.25;;;1.15;;
34212;SDS011;20477;51.390;8.102;2022-10-16T07:27:44;3.80;;;1.23;;
34212;SDS011;20477;51.390;8.102;2022-10-16T07:30:11;4.78;;;1.35;;
34212;SDS011;20477;51.390;8.102;2022-10-16T07:32:38;1.48;;;1.00;;
34212;SDS011;20477;51.390;8.102;2022-10-16T07:35:05;3.25;;;1.25;;
34212;SDS011;20477;51.390;8.102;2022-10-16T07:37:32;7.43;;;1.20;;
34212;SDS011;20477;51.390;8.102;2022-10-16T07:39:59;2.67;;;1.10;;
34212;SDS011;20477;51.390;8.102;2022-10-16T07:42:26;3.30;;;1.10;;
34212;SDS011;20477;51.390;8.102;2022-10-16T07:44:53;1.55;;;1.25;;
34212;SDS011;20477;51.390;8.102;2022-10-16T07:47:20;2.00;;;0.73;;
34212;SDS011;20477;51.390;8.102;2022-10-16T07:49:47;2.70;;;1.33;;
34212;SDS011;20477;51.390;8.102;2022-10-16T07:52:14;2.25;;;1.00;;
34212;SDS011;20477;51.390;8.102;2022-10-16T07:54:41;2.83;;;1.10;;
34212;SDS011;20477;51.390;8.102;2022-10-16T07:57:08;1.92;;;1.00;;
34212;SDS011;20477;51.390;8.102;2022-10-16T07:59:35;1.33;;;0.73;;
34212;SDS011;20477;51.390;8.102;2022-10-16T08:02:02;5.18;;;0.90;;
34212;SDS011;20477;51.390;8.102;2022-10-16T08:04:29;6.72;;;1.30;;
34212;SDS011;20477;51.390;8.102;2022-10-16T08:06:56;2.13;;;0.85;;
34212;SDS011;20477;51.390;8.102;2022-10-16T08:09:22;5.55;;;0.85;;
34212;SDS011;20477;51.390;8.102;2022-10-16T08:11:49;6.35;;;1.25;;
34212;SDS011;20477;51.390;8.102;2022-10-16T08:14:17;2.78;;;1.08;;
34212;SDS011;20477;51.390;8.102;2022-10-16T08:16:44;6.70;;;0.95;;
34212;SDS011;20477;51.390;8.102;2022-10-16T08:19:11;6.00;;;0.98;;
34212;SDS011;20477;51.390;8.102;2022-10-16T08:21:38;4.85;;;1.25;;
34212;SDS011;20477;51.390;8.102;2022-10-16T08:24:05;6.28;;;1.33;;
34212;SDS011;20477;51.390;8.102;2022-10-16T08:26:32;3.13;;;1.08;;
34212;SDS011;20477;51.390;8.102;2022-10-16T08:28:59;2.03;;;1.13;;
34212;SDS011;20477;51.390;8.102;2022-10-16T08:31:26;2.38;;;1.30;;
34212;SDS011;20477;51.390;8.102;2022-10-16T08:33:53;5.50;;;1.25;;
34212;SDS011;20477;51.390;8.102;2022-10-16T08:36:20;9.15;;;1.58;;
34212;SDS011;20477;51.390;8.102;2022-10-16T08:38:48;2.45;;;1.30;;
34212;SDS011;20477;51.390;8.102;2022-10-16T08:48:59;2.38;;;1.67;;
34212;SDS011;20477;51.390;8.102;2022-10-16T08:51:28;2.45;;;1.70;;
34212;SDS011;20477;51.390;8.102;2022-10-16T08:53:58;1.70;;;1.60;;
34212;SDS011;20477;51.390;8.102;2022-10-16T08:56:29;2.15;;;1.88;;
34212;SDS011;20477;51.390;8.102;2022-10-16T08:58:57;2.33;;;1.50;;
34212;SDS011;20477;51.390;8.102;2022-10-16T09:01:38;4.10;;;1.90;;
34212;SDS011;20477;51.390;8.102;2022-10-16T09:12:43;2.72;;;1.10;;
34212;SDS011;20477;51.390;8.102;2022-10-16T09:15:41;1.48;;;0.93;;
34212;SDS011;20477;51.390;8.102;2022-10-16T09:23:57;2.10;;;0.93;;
34212;SDS011;20477;51.390;8.102;2022-10-16T09:26:25;5.10;;;1.20;;
34212;SDS011;20477;51.390;8.102;2022-10-16T09:28:52;4.90;;;1.25;;
34212;SDS011;20477;51.390;8.102;2022-10-16T09:31:20;4.22;;;0.90;;
34212;SDS011;20477;51.390;8.102;2022-10-16T09:33:58;2.25;;;1.23;;
34212;SDS011;20477;51.390;8.102;2022-10-16T09:36:27;3.47;;;1.20;;
34212;SDS011;20477;51.390;8.102;2022-10-16T09:39:05;1.63;;;0.98;;
34212;SDS011;20477;51.390;8.102;2022-10-16T09:41:40;4.57;;;0.75;;
34212;SDS011;20477;51.390;8.102;2022-10-16T09:44:17;6.38;;;0.85;;
34212;SDS011;20477;51.390;8.102;2022-10-16T09:46:46;1.23;;;0.82;;
34212;SDS011;20477;51.390;8.102;2022-10-16T09:49:25;2.00;;;0.70;;
34212;SDS011;20477;51.390;8.102;2022-10-16T09:52:12;4.07;;;1.05;;
34212;SDS011;20477;51.390;8.102;2022-10-16T09:54:56;4.38;;;1.45;;
34212;SDS011;20477;51.390;8.102;2022-10-16T09:57:25;1.70;;;0.82;;
34212;SDS011;20477;51.390;8.102;2022-10-16T09:59:56;1.23;;;0.70;;
34212;SDS011;20477;51.390;8.102;2022-10-16T10:02:31;2.50;;;0.80;;
34212;SDS011;20477;51.390;8.102;2022-10-16T10:05:01;2.50;;;0.60;;
34212;SDS011;20477;51.390;8.102;2022-10-16T10:07:32;1.50;;;0.73;;
34212;SDS011;20477;51.390;8.102;2022-10-16T10:10:01;3.20;;;1.13;;
34212;SDS011;20477;51.390;8.102;2022-10-16T10:12:30;2.17;;;0.90;;
34212;SDS011;20477;51.390;8.102;2022-10-16T10:15:06;2.03;;;0.73;;
34212;SDS011;20477;51.390;8.102;2022-10-16T10:17:56;2.00;;;0.75;;
34212;SDS011;20477;51.390;8.102;2022-10-16T10:20:31;3.97;;;0.90;;
34212;SDS011;20477;51.390;8.102;2022-10-16T10:23:01;1.90;;;0.60;;
34212;SDS011;20477;51.390;8.102;2022-10-16T10:26:05;1.17;;;0.57;;
34212;SDS011;20477;51.390;8.102;2022-10-16T10:33:59;5.38;;;0.77;;
34212;SDS011;20477;51.390;8.102;2022-10-16T10:36:48;2.50;;;1.17;;
34212;SDS011;20477;51.390;8.102;2022-10-16T10:55:58;4.15;;;0.80;;
34212;SDS011;20477;51.390;8.102;2022-10-16T11:01:10;1.10;;;0.45;;
34212;SDS011;20477;51.390;8.102;2022-10-16T11:06:46;5.20;;;1.20;;
34212;SDS011;20477;51.390;8.102;2022-10-16T11:09:25;1.45;;;0.93;;
34212;SDS011;20477;51.390;8.102;2022-10-16T11:12:00;1.27;;;0.70;;
34212;SDS011;20477;51.390;8.102;2022-10-16T11:14:35;0.50;;;0.50;;
34212;SDS011;20477;51.390;8.102;2022-10-16T11:17:16;4.55;;;0.57;;
34212;SDS011;20477;51.390;8.102;2022-10-16T11:22:30;1.23;;;0.60;;
34212;SDS011;20477;51.390;8.102;2022-10-16T11:25:34;0.80;;;0.60;;
34212;SDS011;20477;51.390;8.102;2022-10-16T11:28:03;4.47;;;0.80;;
34212;SDS011;20477;51.390;8.102;2022-10-16T11:36:09;2.00;;;0.70;;
34212;SDS011;20477;51.390;8.102;2022-10-16T11:46:34;1.92;;;0.90;;
34212;SDS011;20477;51.390;8.102;2022-10-16T11:49:24;3.25;;;0.80;;
34212;SDS011;20477;51.390;8.102;2022-10-16T11:51:59;2.58;;;0.73;;
34212;SDS011;20477;51.390;8.102;2022-10-16T11:54:49;4.93;;;0.77;;
34212;SDS011;20477;51.390;8.102;2022-10-16T11:57:23;1.90;;;0.60;;
34212;SDS011;20477;51.390;8.102;2022-10-16T11:59:54;3.53;;;0.77;;
34212;SDS011;20477;51.390;8.102;2022-10-16T12:02:50;4.65;;;0.90;;
34212;SDS011;20477;51.390;8.102;2022-10-16T12:08:01;2.53;;;0.70;;
34212;SDS011;20477;51.390;8.102;2022-10-16T12:10:33;2.95;;;0.60;;
34212;SDS011;20477;51.390;8.102;2022-10-16T12:13:05;1.05;;;0.68;;
34212;SDS011;20477;51.390;8.102;2022-10-16T12:15:50;3.22;;;0.43;;
34212;SDS011;20477;51.390;8.102;2022-10-16T12:18:24;1.23;;;0.60;;
34212;SDS011;20477;51.390;8.102;2022-10-16T12:20:55;8.10;;;0.93;;
34212;SDS011;20477;51.390;8.102;2022-10-16T12:23:30;1.65;;;0.50;;
34212;SDS011;20477;51.390;8.102;2022-10-16T12:26:25;3.53;;;0.70;;
34212;SDS011;20477;51.390;8.102;2022-10-16T12:29:09;1.73;;;0.82;;
34212;SDS011;20477;51.390;8.102;2022-10-16T12:31:39;3.15;;;0.55;;
34212;SDS011;20477;51.390;8.102;2022-10-16T12:34:29;1.98;;;0.70;;
34212;SDS011;20477;51.390;8.102;2022-10-16T12:37:09;4.18;;;0.63;;
34212;SDS011;20477;51.390;8.102;2022-10-16T12:39:46;2.03;;;0.70;;
34212;SDS011;20477;51.390;8.102;2022-10-16T12:45:22;6.10;;;0.90;;
34212;SDS011;20477;51.390;8.102;2022-10-16T12:47:55;3.40;;;0.60;;
34212;SDS011;20477;51.390;8.102;2022-10-16T12:50:30;3.83;;;0.57;;
34212;SDS011;20477;51.390;8.102;2022-10-16T12:53:00;3.95;;;0.65;;
34212;SDS011;20477;51.390;8.102;2022-10-16T12:55:32;0.55;;;0.35;;
34212;SDS011;20477;51.390;8.102;2022-10-16T12:58:09;2.28;;;0.50;;
34212;SDS011;20477;51.390;8.102;2022-10-16T13:17:19;1.45;;;0.47;;
34212;SDS011;20477;51.390;8.102;2022-10-16T13:25:28;2.13;;;0.40;;
34212;SDS011;20477;51.390;8.102;2022-10-16T13:28:13;3.75;;;0.60;;
34212;SDS011;20477;51.390;8.102;2022-10-16T13:30:41;1.10;;;0.30;;
34212;SDS011;20477;51.390;8.102;2022-10-16T13:33:14;2.10;;;0.50;;
34212;SDS011;20477;51.390;8.102;2022-10-16T13:35:50;4.05;;;0.60;;
34212;SDS011;20477;51.390;8.102;2022-10-16T13:38:19;3.03;;;0.63;;
34212;SDS011;20477;51.390;8.102;2022-10-16T13:45:56;2.33;;;0.50;;
34212;SDS011;20477;51.390;8.102;2022-10-16T13:48:34;3.63;;;0.85;;
34212;SDS011;20477;51.390;8.102;2022-10-16T13:51:02;0.98;;;0.40;;
34212;SDS011;20477;51.390;8.102;2022-10-16T13:53:37;6.07;;;0.70;;
34212;SDS011;20477;51.390;8.102;2022-10-16T13:56:05;1.67;;;0.52;;
34212;SDS011;20477;51.390;8.102;2022-10-16T13:58:42;1.25;;;0.52;;
34212;SDS011;20477;51.390;8.102;2022-10-16T14:01:20;4.95;;;2.15;;
34212;SDS011;20477;51.390;8.102;2022-10-16T14:04:00;3.05;;;0.80;;
34212;SDS011;20477;51.390;8.102;2022-10-16T14:06:29;2.47;;;0.70;;
34212;SDS011;20477;51.390;8.102;2022-10-16T14:08:59;2.00;;;0.47;;
34212;SDS011;20477;51.390;8.102;2022-10-16T14:11:44;1.17;;;0.50;;
34212;SDS011;20477;51.390;8.102;2022-10-16T14:14:12;1.75;;;0.73;;
34212;SDS011;20477;51.390;8.102;2022-10-16T14:16:40;1.65;;;0.70;;
34212;SDS011;20477;51.390;8.102;2022-10-16T14:19:25;3.42;;;0.57;;
34212;SDS011;20477;51.390;8.102;2022-10-16T14:21:53;1.90;;;0.55;;
34212;SDS011;20477;51.390;8.102;2022-10-16T14:26:56;1.55;;;0.43;;
34212;SDS011;20477;51.390;8.102;2022-10-16T14:29:24;0.50;;;0.32;;
34212;SDS011;20477;51.390;8.102;2022-10-16T14:34:36;1.60;;;0.50;;
34212;SDS011;20477;51.390;8.102;2022-10-16T14:37:08;3.83;;;0.70;;
34212;SDS011;20477;51.390;8.102;2022-10-16T14:39:41;4.65;;;1.23;;
34212;SDS011;20477;51.390;8.102;2022-10-16T14:42:13;2.40;;;0.70;;
34212;SDS011;20477;51.390;8.102;2022-10-16T14:44:43;1.30;;;0.70;;
34212;SDS011;20477;51.390;8.102;2022-10-16T14:47:14;1.73;;;0.60;;
34212;SDS011;20477;51.390;8.102;2022-10-16T14:49:48;2.58;;;0.47;;
34212;SDS011;20477;51.390;8.102;2022-10-16T14:52:15;2.67;;;0.73;;
34212;SDS011;20477;51.390;8.102;2022-10-16T14:54:42;2.85;;;0.63;;
34212;SDS011;20477;51.390;8.102;2022-10-16T14:57:16;9.20;;;0.80;;
34212;SDS011;20477;51.390;8.102;2022-10-16T14:59:50;3.80;;;0.82;;
34212;SDS011;20477;51.390;8.102;2022-10-16T15:04:55;2.42;;;0.73;;
34212;SDS011;20477;51.390;8.102;2022-10-16T15:07:22;5.35;;;0.60;;
34212;SDS011;20477;51.390;8.102;2022-10-16T15:09:49;1.83;;;0.73;;
34212;SDS011;20477;51.390;8.102;2022-10-16T15:12:17;1.25;;;0.55;;
34212;SDS011;20477;51.390;8.102;2022-10-16T15:14:44;3.80;;;0.57;;
34212;SDS011;20477;51.390;8.102;2022-10-16T15:17:11;4.35;;;0.50;;
34212;SDS011;20477;51.390;8.102;2022-10-16T15:19:39;0.73;;;0.30;;
34212;SDS011;20477;51.390;8.102;2022-10-16T15:22:06;1.75;;;0.40;;
34212;SDS011;20477;51.390;8.102;2022-10-16T15:24:34;2.97;;;0.52;;
34212;SDS011;20477;51.390;8.102;2022-10-16T15:27:01;6.75;;;0.80;;
34212;SDS011;20477;51.390;8.102;2022-10-16T15:29:28;1.27;;;0.50;;
34212;SDS011;20477;51.390;8.102;2022-10-16T15:31:55;2.58;;;0.77;;
34212;SDS011;20477;51.390;8.102;2022-10-16T15:34:22;1.38;;;0.50;;
34212;SDS011;20477;51.390;8.102;2022-10-16T15:36:49;2.33;;;0.63;;
34212;SDS011;20477;51.390;8.102;2022-10-16T15:39:20;3.33;;;1.65;;
34212;SDS011;20477;51.390;8.102;2022-10-16T15:41:47;6.15;;;1.80;;
34212;SDS011;20477;51.390;8.102;2022-10-16T15:44:20;9.00;;;2.03;;
34212;SDS011;20477;51.390;8.102;2022-10-16T15:46:49;4.28;;;2.05;;
34212;SDS011;20477;51.390;8.102;2022-10-16T15:49:16;5.35;;;1.90;;
34212;SDS011;20477;51.390;8.102;2022-10-16T15:51:43;3.67;;;1.08;;
34212;SDS011;20477;51.390;8.102;2022-10-16T15:54:10;7.32;;;1.35;;
34212;SDS011;20477;51.390;8.102;2022-10-16T15:56:37;3.05;;;0.60;;
34212;SDS011;20477;51.390;8.102;2022-10-16T15:59:04;5.75;;;0.88;;
34212;SDS011;20477;51.390;8.102;2022-10-16T16:01:35;7.03;;;0.60;;
34212;SDS011;20477;51.390;8.102;2022-10-16T16:04:02;2.25;;;0.80;;
34212;SDS011;20477;51.390;8.102;2022-10-16T16:06:40;2.28;;;0.70;;
34212;SDS011;20477;51.390;8.102;2022-10-16T16:09:11;4.72;;;0.88;;
34212;SDS011;20477;51.390;8.102;2022-10-16T16:11:39;3.88;;;0.93;;
34212;SDS011;20477;51.390;8.102;2022-10-16T16:14:07;3.58;;;0.90;;
34212;SDS011;20477;51.390;8.102;2022-10-16T16:16:34;3.55;;;1.77;;
34212;SDS011;20477;51.390;8.102;2022-10-16T16:19:06;5.05;;;1.60;;
34212;SDS011;20477;51.390;8.102;2022-10-16T16:21:37;8.48;;;2.40;;
34212;SDS011;20477;51.390;8.102;2022-10-16T16:24:04;10.07;;;1.88;;
34212;SDS011;20477;51.390;8.102;2022-10-16T16:26:35;9.85;;;2.40;;
34212;SDS011;20477;51.390;8.102;2022-10-16T16:29:06;3.92;;;1.88;;
34212;SDS011;20477;51.390;8.102;2022-10-16T16:31:33;9.38;;;1.95;;
34212;SDS011;20477;51.390;8.102;2022-10-16T16:34:01;6.85;;;1.90;;
34212;SDS011;20477;51.390;8.102;2022-10-16T16:36:27;6.75;;;1.80;;
34212;SDS011;20477;51.390;8.102;2022-10-16T16:38:54;8.57;;;2.65;;
34212;SDS011;20477;51.390;8.102;2022-10-16T16:41:25;14.50;;;5.05;;
34212;SDS011;20477;51.390;8.102;2022-10-16T16:43:53;10.27;;;7.28;;
34212;SDS011;20477;51.390;8.102;2022-10-16T16:46:21;3.50;;;1.48;;
34212;SDS011;20477;51.390;8.102;2022-10-16T16:48:48;5.82;;;2.03;;
34212;SDS011;20477;51.390;8.102;2022-10-16T16:53:49;7.13;;;3.00;;
34212;SDS011;20477;51.390;8.102;2022-10-16T16:56:17;11.50;;;3.20;;
34212;SDS011;20477;51.390;8.102;2022-10-16T16:58:46;6.75;;;3.60;;
34212;SDS011;20477;51.390;8.102;2022-10-16T17:01:14;17.27;;;9.38;;
34212;SDS011;20477;51.390;8.102;2022-10-16T17:03:46;14.38;;;5.63;;
34212;SDS011;20477;51.390;8.102;2022-10-16T17:06:16;13.07;;;4.40;;
34212;SDS011;20477;51.390;8.102;2022-10-16T17:08:46;11.73;;;3.72;;
34212;SDS011;20477;51.390;8.102;2022-10-16T17:11:15;11.45;;;3.88;;
34212;SDS011;20477;51.390;8.102;2022-10-16T17:13:45;5.97;;;2.20;;
34212;SDS011;20477;51.390;8.102;2022-10-16T17:16:17;13.10;;;2.58;;
34212;SDS011;20477;51.390;8.102;2022-10-16T17:18:44;7.15;;;3.53;;
34212;SDS011;20477;51.390;8.102;2022-10-16T17:21:11;6.53;;;3.50;;
34212;SDS011;20477;51.390;8.102;2022-10-16T17:23:38;12.75;;;4.35;;